Time;durP1;ratioP1;P1;durP2;ratioP2;P2;SDS_P1;SDS_P2;PMS_P1;PMS_P2;Temp;Humidity;BMP_temperature;BMP_pressure;BME280_temperature;BME280_humidity;BME280_pressure;Samples;Min_cycle;Max_cycle;Signal;HPM_P1;HPM_P2
2022/04/13 00:00:13;;;;;;;;;;;;;;;21.06;34.85;95381.72;2082157;28;1702;-70
2022/04/13 00:01:15;;;;;;;;;;;;;;;21.02;35.17;95381.28;2085887;28;1524;-71
2022/04/13 00:02:17;;;;;;;;;;;;;;;21.00;35.15;95382.56;2090636;28;1218;-71
2022/04/13 00:03:19;;;;;;;;;;;;;;;20.97;35.45;95380.25;2081138;28;1902;-70
2022/04/13 00:04:20;;;;;;;;;;;;;;;20.95;35.18;95382.34;2083788;28;1526;-71
2022/04/13 00:05:22;;;;;;;;;;;;;;;20.95;35.14;95374.34;2095756;28;1653;-71
2022/04/13 00:06:24;;;;;;;;;;;;;;;20.91;35.37;95379.25;2090811;28;1648;-70
2022/04/13 00:07:25;;;;;;;;;;;;;;;20.91;35.20;95383.75;2082108;28;1552;-70
2022/04/13 00:08:27;;;;;;;;;;;;;;;20.89;35.38;95386.66;2085669;28;964;-72
2022/04/13 00:09:28;;;;;;;;;;;;;;;20.89;35.49;95377.81;2094283;28;1034;-70
2022/04/13 00:10:30;;;;;;;;;;;;;;;20.88;35.57;95390.34;2099065;28;2249;-70
2022/04/13 00:11:32;;;;;;;;;;;;;;;20.90;35.17;95379.47;2091231;28;1770;-70
2022/04/13 00:12:33;;;;;;;;;;;;;;;20.91;35.46;95383.75;2082631;28;1106;-71
2022/04/13 00:13:35;;;;;;;;;;;;;;;20.89;35.22;95386.66;2087589;28;1438;-70
2022/04/13 00:14:37;;;;;;;;;;;;;;;20.90;35.47;95382.13;2091256;28;1149;-71
2022/04/13 00:15:38;;;;;;;;;;;;;;;20.89;35.38;95375.16;2083066;28;1602;-72
2022/04/13 00:16:42;;;;;;;;;;;;;;;20.89;35.47;95388.50;2082745;28;1235;-70
2022/04/13 00:17:43;;;;;;;;;;;;;;;20.89;35.62;95377.81;2090964;28;1076;-71
2022/04/13 00:18:45;;;;;;;;;;;;;;;20.90;35.34;95379.47;2090694;28;1678;-70
2022/04/13 00:19:47;;;;;;;;;;;;;;;20.88;35.54;95378.84;2079237;28;1110;-71
2022/04/13 00:20:49;;;;;;;;;;;;;;;20.88;35.46;95374.31;2078231;28;1775;-71
2022/04/13 00:21:51;;;;;;;;;;;;;;;20.88;35.30;95378.84;2082163;28;1559;-72
2022/04/13 00:22:52;;;;;;;;;;;;;;;20.89;35.32;95375.16;2083348;28;1464;-71
2022/04/13 00:23:56;;;;;;;;;;;;;;;20.93;35.45;95377.19;2091040;28;1986;-73
2022/04/13 00:24:58;;;;;;;;;;;;;;;20.94;35.60;95378.00;2099161;28;1061;-73
2022/04/13 00:26:00;;;;;;;;;;;;;;;20.92;35.57;95380.91;2099078;28;1063;-74
2022/04/13 00:27:01;;;;;;;;;;;;;;;20.93;35.41;95373.69;2089441;28;1790;-72
2022/04/13 00:28:03;;;;;;;;;;;;;;;20.93;35.52;95376.38;2082522;28;1737;-74
2022/04/13 00:29:05;;;;;;;;;;;;;;;20.91;35.71;95365.88;2084848;28;1646;-74
2022/04/13 00:30:06;;;;;;;;;;;;;;;20.91;35.50;95383.75;2082507;28;1147;-73
2022/04/13 00:31:08;;;;;;;;;;;;;;;20.93;35.63;95371.03;2082230;28;1551;-71
2022/04/13 00:32:10;;;;;;;;;;;;;;;20.91;35.84;95368.56;2078041;28;1509;-74
2022/04/13 00:33:11;;;;;;;;;;;;;;;20.91;35.97;95367.72;2099011;28;1058;-73
2022/04/13 00:34:13;;;;;;;;;;;;;;;20.91;36.00;95373.06;2089080;28;1506;-74
2022/04/13 00:35:14;;;;;;;;;;;;;;;20.91;36.05;95370.41;2082552;28;1021;-74
2022/04/13 00:36:16;;;;;;;;;;;;;;;20.91;36.08;95373.06;2083146;28;1007;-74
2022/04/13 00:37:18;;;;;;;;;;;;;;;20.91;36.11;95370.41;2083064;28;956;-73
2022/04/13 00:38:21;;;;;;;;;;;;;;;20.91;36.35;95370.41;2082792;28;1121;-73
2022/04/13 00:39:26;;;;;;;;;;;;;;;20.91;36.05;95375.75;2082283;28;1342;-74
2022/04/13 00:40:28;;;;;;;;;;;;;;;20.91;36.02;95373.06;2084282;28;1504;-75
2022/04/13 00:41:29;;;;;;;;;;;;;;;20.91;36.36;95368.56;2082096;28;1642;-71
2022/04/13 00:42:31;;;;;;;;;;;;;;;20.95;36.27;95372.47;2083759;28;1533;-73
2022/04/13 00:43:32;;;;;;;;;;;;;;;20.97;36.49;95366.91;2085603;28;1906;-71
2022/04/13 00:44:34;;;;;;;;;;;;;;;21.08;36.21;95368.97;2081982;28;1488;-71
2022/04/13 00:45:36;;;;;;;;;;;;;;;21.17;36.13;95366.91;2082392;28;1166;-72
2022/04/13 00:46:37;;;;;;;;;;;;;;;21.23;35.77;95369.63;2082953;28;1100;-72
2022/04/13 00:47:40;;;;;;;;;;;;;;;21.31;35.83;95368.56;2082823;28;1085;-71
2022/04/13 00:48:43;;;;;;;;;;;;;;;21.34;35.70;95378.03;2090552;28;1072;-71
2022/04/13 00:49:44;;;;;;;;;;;;;;;21.36;35.94;95381.31;2090333;28;1048;-71
2022/04/13 00:50:46;;;;;;;;;;;;;;;21.38;35.83;95379.28;2090607;28;988;-72
2022/04/13 00:51:47;;;;;;;;;;;;;;;21.39;35.60;95379.03;2089138;28;1439;-71
2022/04/13 00:52:50;;;;;;;;;;;;;;;21.39;35.97;95375.56;2082532;28;1550;-72
2022/04/13 00:53:52;;;;;;;;;;;;;;;21.42;35.85;95381.31;2071308;28;1440;-72
2022/04/13 00:54:54;;;;;;;;;;;;;;;21.47;35.55;95383.38;2078746;28;1725;-72
2022/04/13 00:55:57;;;;;;;;;;;;;;;21.45;35.77;95380.06;2082695;28;1669;-72
2022/04/13 00:57:05;;;;;;;;;;;;;;;21.47;35.81;95380.69;2089604;28;1334;-73
2022/04/13 00:58:07;;;;;;;;;;;;;;;21.50;35.89;95372.25;2090966;28;1165;-72
2022/04/13 00:59:12;;;;;;;;;;;;;;;21.51;35.62;95373.88;2090208;28;1761;-72
2022/04/13 01:00:15;;;;;;;;;;;;;;;21.54;35.43;95376.16;2090942;28;1934;-72
2022/04/13 01:01:16;;;;;;;;;;;;;;;21.54;35.37;95372.66;2098663;28;1028;-72
2022/04/13 01:02:19;;;;;;;;;;;;;;;21.52;35.53;95380.91;2090730;28;1491;-71
2022/04/13 01:03:23;;;;;;;;;;;;;;;21.53;35.81;95376.38;2077576;28;905;-70
2022/04/13 01:04:26;;;;;;;;;;;;;;;21.54;36.00;95384.19;2094114;28;1993;-71
2022/04/13 01:05:29;;;;;;;;;;;;;;;21.51;35.98;95384.56;2092928;28;1182;-71
2022/04/13 01:06:31;;;;;;;;;;;;;;;21.51;35.62;95373.06;2086951;28;1175;-71
2022/04/13 01:07:33;;;;;;;;;;;;;;;21.50;36.15;95376.78;2082007;28;1081;-70
2022/04/13 01:08:35;;;;;;;;;;;;;;;21.53;35.63;95376.38;2086314;28;1696;-71
2022/04/13 01:09:37;;;;;;;;;;;;;;;21.53;35.61;95377.19;2081600;28;1112;-72
2022/04/13 01:10:43;;;;;;;;;;;;;;;21.54;35.78;95386.88;2081537;28;1514;-71
2022/04/13 01:11:44;;;;;;;;;;;;;;;21.58;35.75;95380.06;2081695;28;1452;-71
2022/04/13 01:12:46;;;;;;;;;;;;;;;21.58;35.71;95380.06;2080488;28;1651;-69
2022/04/13 01:13:47;;;;;;;;;;;;;;;21.54;35.87;95384.19;2082063;28;1665;-70
2022/04/13 01:14:49;;;;;;;;;;;;;;;21.55;35.65;95376.97;2073712;28;1173;-71
2022/04/13 01:15:50;;;;;;;;;;;;;;;21.55;35.74;95380.47;2081622;28;1088;-70
2022/04/13 01:16:52;;;;;;;;;;;;;;;21.55;35.60;95377.78;2075888;28;1270;-70
2022/04/13 01:17:54;;;;;;;;;;;;;;;21.54;35.86;95373.50;2071320;28;1354;-70
2022/04/13 01:18:56;;;;;;;;;;;;;;;21.56;35.65;95382.09;2073955;28;1104;-71
2022/04/13 01:19:58;;;;;;;;;;;;;;;21.53;35.57;95381.72;2074445;28;1178;-71
2022/04/13 01:21:00;;;;;;;;;;;;;;;21.51;35.71;95384.56;2074413;28;1095;-70
2022/04/13 01:22:17;;;;;;;;;;;;;;;21.51;35.58;95389.09;2078659;28;1750;-71
2022/04/13 01:23:19;;;;;;;;;;;;;;;21.52;35.64;95375.53;2082055;28;1142;-71
2022/04/13 01:24:21;;;;;;;;;;;;;;;21.48;35.76;95378.84;2080773;28;1914;-73
2022/04/13 01:25:23;;;;;;;;;;;;;;;21.36;35.54;95381.31;2086934;28;1424;-70
2022/04/13 01:26:24;;;;;;;;;;;;;;;21.29;35.94;95380.53;2090075;28;1468;-71
2022/04/13 01:27:26;;;;;;;;;;;;;;;21.21;35.92;95378.88;2083646;28;1637;-71
2022/04/13 01:28:28;;;;;;;;;;;;;;;21.16;36.28;95382.13;2081818;28;1169;-71
2022/04/13 01:29:31;;;;;;;;;;;;;;;21.12;36.48;95380.91;2089343;28;1758;-73
2022/04/13 01:30:32;;;;;;;;;;;;;;;21.13;36.43;95377.19;2082161;28;1178;-72
2022/04/13 01:31:34;;;;;;;;;;;;;;;21.13;36.83;95387.06;2082192;28;1089;-73
2022/04/13 01:32:36;;;;;;;;;;;;;;;21.13;36.87;95382.53;2080819;28;1475;-73
2022/04/13 01:33:39;;;;;;;;;;;;;;;21.13;36.63;95379.88;2081846;28;1095;-72
2022/04/13 01:34:50;;;;;;;;;;;;;;;21.16;36.92;95381.31;2095905;28;1460;-73
2022/04/13 01:35:51;;;;;;;;;;;;;;;21.12;37.03;95380.09;2096347;28;1193;-73
2022/04/13 01:36:53;;;;;;;;;;;;;;;21.13;36.89;95381.72;2090162;28;1848;-72
2022/04/13 01:37:54;;;;;;;;;;;;;;;21.14;37.08;95383.34;2082547;28;1167;-73
2022/04/13 01:38:56;;;;;;;;;;;;;;;21.13;36.32;95381.72;2087562;28;1420;-74
2022/04/13 01:39:58;;;;;;;;;;;;;;;21.13;36.72;95382.53;2084669;28;1030;-73
2022/04/13 01:40:59;;;;;;;;;;;;;;;21.13;36.84;95385.22;2089497;28;1528;-73
2022/04/13 01:42:01;;;;;;;;;;;;;;;21.09;36.92;95381.31;2089947;28;1586;-72
2022/04/13 01:43:02;;;;;;;;;;;;;;;21.10;36.75;95376.78;2097252;28;1680;-73
2022/04/13 01:44:04;;;;;;;;;;;;;;;21.08;36.70;95378.84;2080978;28;1718;-71
2022/04/13 01:45:05;;;;;;;;;;;;;;;21.10;36.10;95374.94;2091447;28;1971;-69
2022/04/13 01:46:06;;;;;;;;;;;;;;;21.10;36.46;95374.13;2098115;28;1142;-70
2022/04/13 01:47:08;;;;;;;;;;;;;;;21.07;36.35;95374.53;2090802;28;1040;-70
2022/04/13 01:48:10;;;;;;;;;;;;;;;21.07;36.29;95383.38;2090665;28;1526;-69
2022/04/13 01:49:12;;;;;;;;;;;;;;;21.05;36.28;95377.41;2089909;28;1479;-70
2022/04/13 01:50:14;;;;;;;;;;;;;;;21.02;36.68;95375.13;2097754;28;1009;-69
2022/04/13 01:51:17;;;;;;;;;;;;;;;20.99;36.61;95372.88;2090876;28;1049;-69
2022/04/13 01:52:18;;;;;;;;;;;;;;;20.98;36.63;95379.25;2087937;28;1370;-70
2022/04/13 01:53:20;;;;;;;;;;;;;;;20.96;36.42;95370.63;2090627;28;1168;-70
2022/04/13 01:54:21;;;;;;;;;;;;;;;20.97;36.27;95374.94;2088621;28;1713;-70
2022/04/13 01:55:23;;;;;;;;;;;;;;;20.96;36.60;95378.63;2082792;28;1004;-73
2022/04/13 01:56:24;;;;;;;;;;;;;;;20.96;36.42;95373.28;2089471;28;1122;-72
2022/04/13 01:57:26;;;;;;;;;;;;;;;20.96;36.56;95375.97;2093563;28;1659;-72
2022/04/13 01:58:28;;;;;;;;;;;;;;;20.94;36.55;95378.84;2090565;28;1228;-72
2022/04/13 01:59:29;;;;;;;;;;;;;;;20.95;36.65;95371.66;2090200;28;1110;-72
2022/04/13 02:00:31;;;;;;;;;;;;;;;20.94;36.53;95367.31;2086238;28;1645;-71
2022/04/13 02:01:34;;;;;;;;;;;;;;;20.93;36.46;95371.03;2081952;28;1429;-73
2022/04/13 02:02:37;;;;;;;;;;;;;;;20.92;36.51;95378.22;2074265;28;1501;-73
2022/04/13 02:03:40;;;;;;;;;;;;;;;20.91;36.68;95370.41;2073552;28;1679;-73
2022/04/13 02:04:42;;;;;;;;;;;;;;;20.90;36.48;95376.78;2074303;28;1902;-71
2022/04/13 02:05:43;;;;;;;;;;;;;;;20.89;36.52;95367.97;2073982;28;999;-72
2022/04/13 02:06:45;;;;;;;;;;;;;;;20.90;36.70;95369.59;2074142;28;2058;-72
2022/04/13 02:07:47;;;;;;;;;;;;;;;20.90;36.69;95368.78;2073839;28;1037;-72
2022/04/13 02:08:48;;;;;;;;;;;;;;;20.90;36.51;95376.78;2081768;28;1740;-72
2022/04/13 02:09:50;;;;;;;;;;;;;;;20.90;36.69;95371.44;2081312;28;1039;-72
2022/04/13 02:10:52;;;;;;;;;;;;;;;20.91;36.61;95368.56;2079499;28;1716;-71
2022/04/13 02:11:53;;;;;;;;;;;;;;;20.91;36.53;95365.06;2073011;28;1467;-72
2022/04/13 02:12:55;;;;;;;;;;;;;;;20.90;36.78;95368.78;2089750;28;1058;-72
2022/04/13 02:13:57;;;;;;;;;;;;;;;20.89;36.71;95369.81;2082017;28;1111;-72
2022/04/13 02:14:58;;;;;;;;;;;;;;;20.88;36.63;95368.97;2089872;28;1082;-73
2022/04/13 02:16:00;;;;;;;;;;;;;;;20.88;36.53;95368.16;2090340;28;1138;-72
2022/04/13 02:17:02;;;;;;;;;;;;;;;20.89;36.53;95370.63;2090440;28;1340;-71
2022/04/13 02:18:04;;;;;;;;;;;;;;;20.88;36.53;95365.47;2090680;28;1199;-73
2022/04/13 02:19:11;;;;;;;;;;;;;;;20.91;36.66;95373.06;2089390;28;1572;-73
2022/04/13 02:20:12;;;;;;;;;;;;;;;20.91;36.74;95365.88;2090386;28;1110;-72
2022/04/13 02:21:14;;;;;;;;;;;;;;;20.94;36.68;95378.00;2090455;28;1133;-73
2022/04/13 02:22:16;;;;;;;;;;;;;;;20.94;36.32;95375.34;2080062;28;1712;-73
2022/04/13 02:23:37;;;;;;;;;;;;;;;20.90;36.38;95360.75;2092948;28;1583;-72
2022/04/13 02:24:39;;;;;;;;;;;;;;;20.88;36.52;95363.63;2090747;28;1906;-72
2022/04/13 02:25:41;;;;;;;;;;;;;;;20.88;36.33;95362.81;2093005;28;1446;-72
2022/04/13 02:26:42;;;;;;;;;;;;;;;20.88;36.56;95368.97;2097606;28;1172;-72
2022/04/13 02:27:44;;;;;;;;;;;;;;;20.86;36.64;95368.38;2090021;28;1039;-72
2022/04/13 02:28:46;;;;;;;;;;;;;;;20.86;36.65;95365.69;2089778;28;1161;-72
2022/04/13 02:29:50;;;;;;;;;;;;;;;20.86;36.50;95368.38;2087515;28;1450;-72
2022/04/13 02:30:51;;;;;;;;;;;;;;;20.88;36.66;95363.63;2082288;28;1620;-72
2022/04/13 02:31:53;;;;;;;;;;;;;;;20.86;36.65;95359.50;2084001;28;1373;-72
2022/04/13 02:32:54;;;;;;;;;;;;;;;20.85;36.70;95355.22;2089600;28;1110;-72
2022/04/13 02:33:57;;;;;;;;;;;;;;;20.85;36.86;95368.56;2088510;28;1750;-72
2022/04/13 02:34:58;;;;;;;;;;;;;;;20.86;36.60;95364.84;2097820;28;1247;-72
2022/04/13 02:36:00;;;;;;;;;;;;;;;20.86;36.69;95365.69;2085171;28;1237;-71
2022/04/13 02:37:02;;;;;;;;;;;;;;;20.86;36.81;95360.34;2079986;28;1677;-72
2022/04/13 02:38:04;;;;;;;;;;;;;;;20.84;36.94;95362.41;2073858;28;1130;-72
2022/04/13 02:39:06;;;;;;;;;;;;;;;20.85;36.73;95358.69;2079877;28;1529;-72
2022/04/13 02:40:07;;;;;;;;;;;;;;;20.86;36.76;95367.53;2097026;28;1440;-72
2022/04/13 02:41:09;;;;;;;;;;;;;;;20.87;36.76;95361.16;2089651;28;1220;-73
2022/04/13 02:42:17;;;;;;;;;;;;;;;20.87;36.94;95366.50;2081276;28;1249;-72
2022/04/13 02:43:18;;;;;;;;;;;;;;;20.84;36.82;95364.25;2082192;28;1174;-72
2022/04/13 02:44:20;;;;;;;;;;;;;;;20.84;36.99;95354.38;2088393;28;1486;-72
2022/04/13 02:45:21;;;;;;;;;;;;;;;20.84;37.07;95361.59;2087920;28;1987;-72
2022/04/13 02:46:23;;;;;;;;;;;;;;;20.85;36.92;95360.53;2097489;28;984;-73
2022/04/13 02:47:25;;;;;;;;;;;;;;;20.85;36.93;95352.53;2093639;28;1013;-72
2022/04/13 02:48:26;;;;;;;;;;;;;;;20.85;37.02;95356.03;2085376;28;1152;-72
2022/04/13 02:49:28;;;;;;;;;;;;;;;20.85;36.93;95357.88;2090457;28;1004;-72
2022/04/13 02:50:30;;;;;;;;;;;;;;;20.84;36.93;95353.56;2095474;28;1717;-73
2022/04/13 02:51:31;;;;;;;;;;;;;;;20.83;37.18;95360.78;2088952;28;987;-73
2022/04/13 02:52:33;;;;;;;;;;;;;;;20.86;37.15;95362.19;2082174;28;1006;-73
2022/04/13 02:53:35;;;;;;;;;;;;;;;20.84;37.27;95357.06;2081289;28;1460;-73
2022/04/13 02:54:36;;;;;;;;;;;;;;;20.84;37.19;95357.06;2087838;28;1460;-73
2022/04/13 02:55:38;;;;;;;;;;;;;;;20.84;37.35;95359.72;2081219;28;1702;-73
2022/04/13 02:56:39;;;;;;;;;;;;;;;20.85;37.31;95360.53;2089480;28;1729;-74
2022/04/13 02:57:41;;;;;;;;;;;;;;;20.86;37.09;95365.69;2089515;28;1038;-74
2022/04/13 02:58:43;;;;;;;;;;;;;;;20.85;37.23;95364.03;2077305;28;992;-74
2022/04/13 02:59:46;;;;;;;;;;;;;;;20.85;37.27;95368.56;2080905;28;1536;-74
2022/04/13 03:00:47;;;;;;;;;;;;;;;20.84;37.54;95361.59;2089827;28;1256;-73
2022/04/13 03:01:49;;;;;;;;;;;;;;;20.83;37.47;95368.78;2090139;28;1102;-72
2022/04/13 03:02:52;;;;;;;;;;;;;;;19.84;27.20;95367.44;2090381;28;982;-74
2022/04/13 03:03:55;;;;;;;;;;;;;;;18.23;27.82;95369.00;2083760;28;1485;-72
2022/04/13 03:04:56;;;;;;;;;;;;;;;17.04;28.08;95368.22;2086550;28;1906;-71
2022/04/13 03:05:58;;;;;;;;;;;;;;;16.13;29.72;95369.06;2083654;28;1637;-73
2022/04/13 03:06:59;;;;;;;;;;;;;;;15.75;29.30;95375.03;2091504;28;1712;-73
2022/04/13 03:08:01;;;;;;;;;;;;;;;15.32;30.18;95371.88;2097776;28;1001;-73
2022/04/13 03:09:03;;;;;;;;;;;;;;;14.96;29.86;95377.56;2090144;28;1157;-74
2022/04/13 03:10:05;;;;;;;;;;;;;;;14.62;30.26;95375.06;2083484;28;1669;-73
2022/04/13 03:11:08;;;;;;;;;;;;;;;14.59;30.22;95374.59;2084728;28;1530;-72
2022/04/13 03:12:10;;;;;;;;;;;;;;;14.47;30.13;95376.75;2096912;28;1495;-73
2022/04/13 03:13:12;;;;;;;;;;;;;;;14.39;30.36;95382.00;2097621;28;1196;-73
2022/04/13 03:14:14;;;;;;;;;;;;;;;14.00;30.40;95377.34;2089836;28;1612;-73
2022/04/13 03:15:15;;;;;;;;;;;;;;;13.94;31.02;95376.19;2097889;28;1117;-72
2022/04/13 03:16:17;;;;;;;;;;;;;;;14.06;31.16;95374.88;2097768;28;1169;-73
2022/04/13 03:17:19;;;;;;;;;;;;;;;14.17;30.41;95380.81;2089953;28;1407;-73
2022/04/13 03:18:20;;;;;;;;;;;;;;;14.06;30.98;95377.50;2080683;28;1665;-73
2022/04/13 03:19:22;;;;;;;;;;;;;;;14.21;30.75;95380.34;2081192;28;1680;-73
2022/04/13 03:20:23;;;;;;;;;;;;;;;14.21;30.35;95376.88;2081871;28;1151;-72
2022/04/13 03:21:25;;;;;;;;;;;;;;;13.77;30.65;95375.28;2083926;28;1737;-72
2022/04/13 03:22:27;;;;;;;;;;;;;;;13.78;31.26;95381.41;2085042;28;1116;-73
2022/04/13 03:23:29;;;;;;;;;;;;;;;13.86;30.75;95378.78;2083670;28;1505;-73
2022/04/13 03:24:30;;;;;;;;;;;;;;;13.82;30.77;95383.53;2091129;28;1124;-73
2022/04/13 03:25:33;;;;;;;;;;;;;;;13.64;31.22;95387.28;2089698;28;1894;-73
2022/04/13 03:26:34;;;;;;;;;;;;;;;13.55;31.21;95389.88;2086513;28;1678;-72
2022/04/13 03:27:37;;;;;;;;;;;;;;;13.31;31.42;95384.44;2088533;28;1471;-70
2022/04/13 03:28:39;;;;;;;;;;;;;;;13.55;31.22;95387.25;2083324;28;1020;-73
2022/04/13 03:29:40;;;;;;;;;;;;;;;13.46;31.58;95393.44;2083438;28;1596;-73
2022/04/13 03:30:42;;;;;;;;;;;;;;;13.57;31.13;95395.84;2083526;28;1799;-72
2022/04/13 03:31:44;;;;;;;;;;;;;;;13.64;31.12;95385.47;2083871;28;1213;-73
2022/04/13 03:32:45;;;;;;;;;;;;;;;13.55;31.11;95383.78;2079382;28;1098;-72
2022/04/13 03:33:47;;;;;;;;;;;;;;;13.59;31.02;95388.56;2090672;28;1598;-73
2022/04/13 03:34:49;;;;;;;;;;;;;;;13.35;31.06;95389.28;2095363;28;1696;-72
2022/04/13 03:35:50;;;;;;;;;;;;;;;13.38;31.51;95390.78;2085263;28;1491;-72
2022/04/13 03:36:52;;;;;;;;;;;;;;;13.34;31.10;95390.25;2083115;28;1698;-72
2022/04/13 03:37:53;;;;;;;;;;;;;;;13.23;31.47;95390.53;2083080;28;1708;-73
2022/04/13 03:38:55;;;;;;;;;;;;;;;13.20;31.60;95392.63;2090844;28;1690;-73
2022/04/13 03:39:56;;;;;;;;;;;;;;;13.04;31.50;95399.47;2086684;28;1711;-72
2022/04/13 03:40:58;;;;;;;;;;;;;;;12.96;31.68;95391.50;2083292;28;1676;-75
2022/04/13 03:41:59;;;;;;;;;;;;;;;13.25;32.48;95388.53;2088664;28;1632;-73
2022/04/13 03:43:01;;;;;;;;;;;;;;;13.58;30.90;95397.50;2094729;28;1222;-78
2022/04/13 03:44:03;;;;;;;;;;;;;;;13.20;32.48;95396.09;2089832;28;1722;-78
2022/04/13 03:45:06;;;;;;;;;;;;;;;13.02;33.11;95401.44;2092740;28;1083;-76
2022/04/13 03:46:08;;;;;;;;;;;;;;;13.09;33.59;95399.84;2093114;28;1898;-76
2022/04/13 03:47:10;;;;;;;;;;;;;;;12.89;34.05;95395.75;2094771;28;994;-75
2022/04/13 03:48:11;;;;;;;;;;;;;;;12.87;34.64;95403.00;2093897;28;1078;-75
2022/04/13 03:49:13;;;;;;;;;;;;;;;12.74;35.38;95408.66;2094424;28;1152;-76
2022/04/13 03:50:15;;;;;;;;;;;;;;;12.45;36.87;95403.63;2091186;28;1489;-75
2022/04/13 03:51:16;;;;;;;;;;;;;;;12.47;36.42;95410.41;2082652;28;1111;-76
2022/04/13 03:52:18;;;;;;;;;;;;;;;12.76;36.42;95400.59;2088353;28;1958;-74
2022/04/13 03:53:20;;;;;;;;;;;;;;;13.72;35.07;95398.72;2098277;28;1381;-74
2022/04/13 03:54:21;;;;;;;;;;;;;;;14.56;34.20;95396.06;2082290;28;1462;-75
2022/04/13 03:55:23;;;;;;;;;;;;;;;15.21;33.18;95405.84;2070025;28;979;-74
2022/04/13 03:56:24;;;;;;;;;;;;;;;15.70;32.19;95398.56;2077687;28;1334;-74
2022/04/13 03:57:26;;;;;;;;;;;;;;;16.07;31.83;95397.09;2090754;28;1231;-74
2022/04/13 03:58:28;;;;;;;;;;;;;;;16.35;31.50;95404.56;2075027;28;1182;-75
2022/04/13 03:59:29;;;;;;;;;;;;;;;16.58;31.10;95412.53;2082610;28;1625;-75
2022/04/13 04:00:31;;;;;;;;;;;;;;;16.77;30.82;95409.41;2090482;28;1182;-73
2022/04/13 04:01:33;;;;;;;;;;;;;;;16.91;30.89;95405.19;2088692;28;1358;-74
2022/04/13 04:02:39;;;;;;;;;;;;;;;17.04;30.81;95409.88;2082570;28;1637;-77
2022/04/13 04:03:41;;;;;;;;;;;;;;;17.26;30.56;95408.19;2084319;28;1665;-72
2022/04/13 04:04:42;;;;;;;;;;;;;;;17.44;30.48;95413.97;2085131;28;1518;-71
2022/04/13 04:05:44;;;;;;;;;;;;;;;17.59;30.35;95406.84;2087553;28;1989;-77
2022/04/13 04:06:45;;;;;;;;;;;;;;;17.33;29.30;95412.59;2081692;28;1086;-76
2022/04/13 04:07:48;;;;;;;;;;;;;;;15.36;30.50;95417.38;2080242;28;1041;-74
2022/04/13 04:08:50;;;;;;;;;;;;;;;14.34;32.17;95418.69;2084629;28;1557;-74
2022/04/13 04:09:52;;;;;;;;;;;;;;;13.76;33.69;95417.69;2088516;28;1042;-75
2022/04/13 04:10:53;;;;;;;;;;;;;;;13.54;34.60;95422.56;2094703;28;1062;-74
2022/04/13 04:11:55;;;;;;;;;;;;;;;14.22;34.17;95420.81;2096867;28;1458;-73
2022/04/13 04:12:56;;;;;;;;;;;;;;;15.04;33.19;95418.25;2090179;28;1622;-75
2022/04/13 04:13:59;;;;;;;;;;;;;;;15.72;32.51;95415.13;2086348;28;1324;-75
2022/04/13 04:15:01;;;;;;;;;;;;;;;16.20;31.82;95415.94;2079838;28;1066;-75
2022/04/13 04:16:03;;;;;;;;;;;;;;;16.58;31.27;95418.66;2085972;28;1020;-75
2022/04/13 04:17:05;;;;;;;;;;;;;;;16.85;30.86;95427.97;2091136;28;1671;-76
2022/04/13 04:18:07;;;;;;;;;;;;;;;17.04;30.73;95418.66;2088276;28;1516;-75
2022/04/13 04:19:09;;;;;;;;;;;;;;;17.19;30.71;95422.19;2098601;28;1148;-75
2022/04/13 04:20:11;;;;;;;;;;;;;;;17.34;30.26;95427.53;2093635;28;1867;-76
2022/04/13 04:21:12;;;;;;;;;;;;;;;17.44;30.21;95427.25;2085786;28;1080;-76
2022/04/13 04:22:15;;;;;;;;;;;;;;;17.52;30.17;95423.69;2084577;28;1186;-75
2022/04/13 04:23:16;;;;;;;;;;;;;;;17.59;30.18;95428.09;2092585;28;987;-76
2022/04/13 04:24:18;;;;;;;;;;;;;;;17.66;30.09;95430.84;2092248;28;1130;-76
2022/04/13 04:25:19;;;;;;;;;;;;;;;17.72;30.28;95430.13;2083528;28;1078;-76
2022/04/13 04:26:21;;;;;;;;;;;;;;;17.78;30.14;95428.59;2091010;28;1985;-75
2022/04/13 04:27:22;;;;;;;;;;;;;;;17.82;30.07;95430.72;2091734;28;1118;-75
2022/04/13 04:28:24;;;;;;;;;;;;;;;17.86;30.08;95431.16;2086752;28;1160;-75
2022/04/13 04:29:25;;;;;;;;;;;;;;;17.90;30.14;95432.44;2082775;28;1057;-76
2022/04/13 04:30:29;;;;;;;;;;;;;;;17.93;30.26;95428.59;2087411;28;1200;-76
2022/04/13 04:32:51;;;;;;;;;;;;;;;18.01;30.12;95445.28;2089275;28;1147;-75
2022/04/13 04:33:52;;;;;;;;;;;;;;;18.04;30.13;95439.59;2090107;28;1053;-75
2022/04/13 04:34:54;;;;;;;;;;;;;;;18.08;30.35;95445.34;2089003;28;1472;-76
2022/04/13 04:35:56;;;;;;;;;;;;;;;18.10;30.16;95446.00;2083280;28;1020;-76
2022/04/13 04:36:57;;;;;;;;;;;;;;;18.13;30.35;95452.78;2082662;28;1042;-75
2022/04/13 04:38:00;;;;;;;;;;;;;;;18.16;30.22;95444.44;2082975;28;1047;-76
2022/04/13 04:39:01;;;;;;;;;;;;;;;18.18;30.38;95450.38;2090536;28;1057;-76
2022/04/13 04:40:03;;;;;;;;;;;;;;;18.20;30.39;95451.84;2083351;28;977;-76
2022/04/13 04:41:07;;;;;;;;;;;;;;;18.24;30.33;95454.94;2078241;28;1170;-76
2022/04/13 04:42:09;;;;;;;;;;;;;;;18.26;30.23;95455.59;2077656;28;1390;-75
2022/04/13 04:43:11;;;;;;;;;;;;;;;18.28;30.25;95458.91;2081658;28;1080;-76
2022/04/13 04:44:12;;;;;;;;;;;;;;;18.30;30.37;95467.53;2081834;28;938;-76
2022/04/13 04:45:16;;;;;;;;;;;;;;;18.31;30.16;95461.19;2082769;28;1224;-75
2022/04/13 04:46:19;;;;;;;;;;;;;;;18.33;30.17;95462.66;2090123;28;1910;-76
2022/04/13 04:47:21;;;;;;;;;;;;;;;18.36;30.34;95461.44;2081675;28;1173;-75
2022/04/13 04:48:23;;;;;;;;;;;;;;;18.37;30.21;95468.41;2081826;28;1062;-75
2022/04/13 04:49:24;;;;;;;;;;;;;;;18.39;30.22;95465.59;2082549;28;1050;-75
2022/04/13 04:50:26;;;;;;;;;;;;;;;18.42;30.22;95467.88;2081651;28;1102;-75
2022/04/13 04:51:27;;;;;;;;;;;;;;;18.43;30.15;95469.50;2082017;28;1139;-75
2022/04/13 04:52:29;;;;;;;;;;;;;;;18.44;30.23;95469.34;2077841;28;1150;-75
2022/04/13 04:53:30;;;;;;;;;;;;;;;18.45;30.38;95463.00;2077672;28;1154;-75
2022/04/13 04:54:32;;;;;;;;;;;;;;;18.47;30.32;95466.28;2090092;28;1001;-75
2022/04/13 04:55:34;;;;;;;;;;;;;;;18.48;30.25;95467.94;2082075;28;981;-75
2022/04/13 04:56:35;;;;;;;;;;;;;;;18.50;30.15;95473.09;2082145;28;1193;-75
2022/04/13 04:57:37;;;;;;;;;;;;;;;18.51;30.45;95469.41;2090129;28;1038;-75
2022/04/13 04:58:39;;;;;;;;;;;;;;;18.52;30.37;95469.22;2083337;28;1173;-75
2022/04/13 04:59:40;;;;;;;;;;;;;;;18.54;30.19;95469.03;2083077;28;1717;-75
2022/04/13 05:00:42;;;;;;;;;;;;;;;18.55;30.23;95468.84;2082926;28;1723;-74
2022/04/13 05:01:43;;;;;;;;;;;;;;;18.58;30.25;95472.13;2082096;28;1542;-76
2022/04/13 05:02:52;;;;;;;;;;;;;;;18.59;30.14;95468.47;2082520;28;1006;-75
2022/04/13 05:03:53;;;;;;;;;;;;;;;18.61;30.20;95482.38;2078625;28;1110;-75
2022/04/13 05:04:55;;;;;;;;;;;;;;;18.62;30.24;95473.41;2086130;28;1643;-75
2022/04/13 05:05:57;;;;;;;;;;;;;;;18.62;30.29;95482.22;2090505;28;1017;-74
2022/04/13 05:06:58;;;;;;;;;;;;;;;18.65;30.21;95478.34;2083062;28;1902;-75
2022/04/13 05:08:00;;;;;;;;;;;;;;;18.65;30.44;95481.03;2083061;28;1076;-75
2022/04/13 05:09:01;;;;;;;;;;;;;;;18.67;30.26;95487.03;2082742;28;1005;-75
2022/04/13 05:10:03;;;;;;;;;;;;;;;18.67;30.21;95485.19;2083167;28;1084;-74
2022/04/13 05:11:05;;;;;;;;;;;;;;;18.69;30.25;95487.63;2083091;28;1275;-74
2022/04/13 05:12:06;;;;;;;;;;;;;;;18.70;30.18;95487.47;2082815;28;1005;-75
2022/04/13 05:13:08;;;;;;;;;;;;;;;18.72;30.37;95489.91;2083027;28;1508;-75
2022/04/13 05:14:10;;;;;;;;;;;;;;;18.72;30.43;95493.44;2090513;28;1497;-75
2022/04/13 05:15:12;;;;;;;;;;;;;;;18.73;30.14;95491.59;2078067;28;1049;-75
2022/04/13 05:16:14;;;;;;;;;;;;;;;18.73;30.09;95487.09;2078528;28;1192;-75
2022/04/13 05:17:16;;;;;;;;;;;;;;;18.74;30.18;95494.03;2090570;28;1217;-75
2022/04/13 05:18:17;;;;;;;;;;;;;;;18.75;30.40;95489.53;2090607;28;1685;-75
2022/04/13 05:19:19;;;;;;;;;;;;;;;18.76;30.44;95491.22;2089903;28;1491;-75
2022/04/13 05:20:21;;;;;;;;;;;;;;;18.77;30.21;95493.66;2083020;28;1009;-75
2022/04/13 05:21:22;;;;;;;;;;;;;;;18.78;30.39;95494.53;2083136;28;1013;-75
2022/04/13 05:22:24;;;;;;;;;;;;;;;18.79;30.23;95496.16;2082370;28;1100;-75
2022/04/13 05:23:25;;;;;;;;;;;;;;;18.80;30.39;95496.97;2082319;28;1190;-75
2022/04/13 05:24:29;;;;;;;;;;;;;;;18.82;30.39;95500.28;2082992;28;1062;-75
2022/04/13 05:25:31;;;;;;;;;;;;;;;18.82;30.37;95500.28;2083063;28;1029;-76
2022/04/13 05:26:33;;;;;;;;;;;;;;;18.84;30.44;95498.25;2078411;28;1999;-75
2022/04/13 05:27:34;;;;;;;;;;;;;;;18.84;30.47;95496.41;2077896;28;1106;-75
2022/04/13 05:28:36;;;;;;;;;;;;;;;18.84;30.32;95498.25;2090868;28;1082;-75